Harrison, New Jersey
Current Conditions -  °F | °C
As of 9:51 PM on Wednesday 22 Oct 2014 (Local Time) from KEWR Reporting Station
Moderate Rain Moderate Rain  
Wind Chill: 52°   Ceiling: 2200
Heat Index: 52°   Visibility: 6mi
Dew Point: 48°   Wind: 25mph
Humidity: 86%   Direction: 350°N
Pressure: 29.76"   Gusts: 33mph
Location:  40.75°N, 74.16°W
Report Text: KEWR 230151Z 35022G29KT 6SM RA BR FEW016 BKN022 OVC044 11/09 A2976 RMK AO2 PK WND 01031/0102 SLP078 P0008 T01110089
Loading
Personal Weather Stations






























Interactive Weather Map
Tropical Storm Tracking
New forecast layout! Learn more

10-Day Weather Forecast

Advertisements
Track Severe Weather on mobile